createdAt,value
2022-08-04T00:04:42.269Z,12.80
2022-08-04T00:07:52.816Z,14.00
2022-08-04T00:10:58.696Z,11.50
2022-08-04T00:14:09.952Z,10.70
2022-08-04T00:17:14.630Z,11.50
2022-08-04T00:20:19.858Z,14.50
2022-08-04T00:23:24.781Z,13.60
2022-08-04T00:26:28.104Z,11.50
2022-08-04T00:29:31.244Z,11.60
2022-08-04T00:32:34.913Z,18.80
2022-08-04T00:35:39.766Z,13.40
2022-08-04T00:38:43.895Z,12.30
2022-08-04T00:42:05.043Z,15.20
2022-08-04T00:45:26.453Z,12.30
2022-08-04T00:48:43.118Z,13.90
2022-08-04T00:52:31.614Z,15.00
2022-08-04T00:55:39.147Z,13.10
2022-08-04T00:58:48.107Z,22.30
2022-08-04T01:02:08.727Z,13.40
2022-08-04T01:05:37.947Z,12.80
2022-08-04T01:08:59.147Z,15.00
2022-08-04T01:12:26.291Z,12.60
2022-08-04T01:16:00.431Z,12.50
2022-08-04T01:19:20.754Z,13.40
2022-08-04T01:22:32.734Z,12.20
2022-08-04T01:26:44.065Z,12.50
2022-08-04T01:29:50.311Z,13.00
2022-08-04T01:33:05.025Z,12.40
2022-08-04T01:36:10.049Z,14.00
2022-08-04T01:39:33.137Z,12.80
2022-08-04T01:42:37.601Z,13.10
2022-08-04T01:45:41.843Z,13.10
2022-08-04T01:48:46.789Z,13.90
2022-08-04T01:51:52.328Z,14.30
2022-08-04T01:54:55.718Z,14.20
2022-08-04T01:58:03.675Z,14.00
2022-08-04T02:01:13.163Z,13.90
2022-08-04T02:04:23.339Z,13.20
2022-08-04T02:07:40.368Z,12.70
2022-08-04T02:10:43.489Z,17.10
2022-08-04T02:13:49.115Z,14.70
2022-08-04T02:16:52.921Z,14.60
2022-08-04T02:20:05.004Z,13.40
2022-08-04T02:23:14.329Z,13.60
2022-08-04T02:26:22.528Z,14.40
2022-08-04T02:29:58.627Z,13.90
2022-08-04T02:33:07.565Z,13.70
2022-08-04T02:36:16.747Z,14.90
2022-08-04T02:39:21.772Z,15.60
2022-08-04T02:42:24.824Z,13.80
2022-08-04T02:45:30.641Z,14.80
2022-08-04T02:48:34.896Z,15.10
2022-08-04T02:51:41.930Z,15.70
2022-08-04T02:54:45.714Z,15.10
2022-08-04T02:57:50.750Z,15.70
2022-08-04T03:00:53.736Z,18.70
2022-08-04T03:04:25.448Z,15.90
2022-08-04T03:07:58.778Z,16.80
2022-08-04T03:11:30.093Z,16.80
2022-08-04T03:14:54.781Z,15.40
2022-08-04T03:18:06.902Z,17.00
2022-08-04T03:21:36.865Z,17.00
2022-08-04T03:24:58.439Z,14.40
2022-08-04T03:28:32.326Z,20.50
2022-08-04T03:31:59.153Z,16.30
2022-08-04T03:35:22.685Z,16.10
2022-08-04T03:39:00.226Z,16.90
2022-08-04T03:42:34.150Z,16.30
2022-08-04T03:46:06.003Z,16.30
2022-08-04T03:49:42.727Z,17.30
2022-08-04T03:53:24.567Z,20.30
2022-08-04T03:57:20.611Z,20.10
2022-08-04T04:00:34.632Z,18.40
2022-08-04T04:04:14.938Z,18.10
2022-08-04T04:07:20.540Z,17.50
2022-08-04T04:11:12.637Z,17.30
2022-08-04T04:14:23.042Z,16.30
2022-08-04T04:17:34.743Z,16.80
2022-08-04T04:20:56.177Z,17.00
2022-08-04T04:24:33.607Z,18.70
2022-08-04T04:28:45.656Z,21.20
2022-08-04T04:32:10.769Z,16.50
2022-08-04T04:35:49.237Z,20.00
2022-08-04T04:39:13.506Z,20.80
2022-08-04T04:42:39.702Z,19.80
2022-08-04T04:46:30.253Z,23.10
2022-08-04T04:49:48.721Z,21.50
2022-08-04T04:53:03.104Z,19.60
2022-08-04T04:56:14.781Z,19.70
2022-08-04T04:59:22.648Z,17.70
2022-08-04T05:02:50.240Z,16.90
2022-08-04T05:06:15.207Z,18.80
2022-08-04T05:09:32.128Z,17.20
2022-08-04T05:14:31.307Z,17.70
2022-08-04T05:16:27.219Z,19.50
2022-08-04T05:19:51.452Z,16.00
2022-08-04T05:22:59.866Z,20.00
2022-08-04T05:26:13.567Z,16.60
2022-08-04T05:29:31.957Z,21.70
2022-08-04T05:32:45.180Z,17.10
2022-08-04T05:36:17.147Z,16.40
2022-08-04T05:39:22.617Z,15.30
2022-08-04T05:42:27.428Z,16.50
2022-08-04T05:45:39.229Z,17.90
2022-08-04T05:48:44.443Z,15.00
2022-08-04T05:51:49.247Z,15.40
2022-08-04T05:54:53.100Z,12.30
2022-08-04T05:57:59.071Z,13.60
2022-08-04T06:01:03.038Z,14.50
2022-08-04T06:04:11.156Z,12.20
2022-08-04T06:07:14.744Z,12.70
2022-08-04T06:10:17.872Z,13.00
2022-08-04T06:13:46.774Z,10.30
2022-08-04T06:16:55.222Z,10.70
2022-08-04T06:20:19.610Z,10.70
2022-08-04T06:23:29.131Z,15.90
2022-08-04T06:26:37.260Z,11.80
2022-08-04T06:29:51.302Z,12.30
2022-08-04T06:33:03.562Z,9.70
2022-08-04T06:36:08.599Z,11.70
2022-08-04T06:39:12.187Z,12.90
2022-08-04T06:42:21.873Z,9.80
2022-08-04T06:45:27.321Z,7.50
2022-08-04T06:48:33.827Z,11.80
2022-08-04T06:51:45.239Z,12.10
2022-08-04T06:54:53.564Z,9.80
2022-08-04T06:58:02.499Z,11.60
2022-08-04T07:01:07.117Z,7.50
2022-08-04T07:04:11.148Z,8.90
2022-08-04T07:07:15.101Z,8.20
2022-08-04T07:10:22.331Z,7.90
2022-08-04T07:13:27.622Z,12.40
2022-08-04T07:16:32.141Z,9.40
2022-08-04T07:19:38.711Z,9.60
2022-08-04T07:22:43.682Z,7.90
2022-08-04T07:25:59.911Z,7.90
2022-08-04T07:29:15.149Z,9.70
2022-08-04T07:32:23.144Z,6.10
2022-08-04T07:36:05.694Z,6.90
2022-08-04T07:38:52.224Z,6.40
2022-08-04T07:41:57.310Z,4.70
2022-08-04T07:45:00.544Z,9.20
2022-08-04T07:48:07.338Z,6.10
2022-08-04T07:51:11.370Z,7.20
2022-08-04T07:54:15.376Z,5.10
2022-08-04T07:57:40.205Z,6.40
2022-08-04T08:00:47.061Z,4.50
2022-08-04T08:03:52.271Z,4.50
2022-08-04T08:06:58.003Z,3.60
2022-08-04T08:10:01.443Z,4.20
2022-08-04T08:13:05.081Z,5.90
2022-08-04T08:16:08.223Z,4.90
2022-08-04T08:19:12.423Z,3.70
2022-08-04T08:22:15.757Z,5.50
2022-08-04T08:25:19.429Z,4.60
2022-08-04T08:28:24.968Z,6.00
2022-08-04T08:31:55.633Z,5.20
2022-08-04T08:34:51.222Z,6.70
2022-08-04T08:38:02.996Z,4.60
2022-08-04T08:45:08.142Z,4.10
2022-08-04T08:48:36.510Z,4.00
2022-08-04T08:51:49.861Z,3.20
2022-08-04T08:55:14.028Z,3.50
2022-08-04T08:58:38.753Z,4.50
2022-08-04T09:02:14.387Z,3.10
2022-08-04T09:05:36.960Z,4.80
2022-08-04T09:09:00.096Z,5.00
2022-08-04T09:12:25.642Z,3.80
2022-08-04T09:15:41.793Z,4.00
2022-08-04T09:18:56.702Z,2.40
2022-08-04T09:22:12.794Z,3.80
2022-08-04T09:25:26.430Z,8.20
2022-08-04T09:28:53.482Z,4.10
2022-08-04T09:32:29.087Z,2.90
2022-08-04T09:36:11.299Z,3.80
2022-08-04T09:42:51.123Z,2.90
2022-08-04T09:46:17.031Z,2.20
2022-08-04T09:53:00.236Z,4.40
2022-08-04T09:56:28.875Z,3.70
2022-08-04T09:59:41.063Z,5.90
2022-08-04T10:02:56.756Z,3.40
2022-08-04T10:06:21.459Z,4.40
2022-08-04T10:10:01.985Z,2.40
2022-08-04T10:13:23.649Z,3.80
2022-08-04T10:16:40.358Z,3.20
2022-08-04T10:19:43.340Z,2.50
2022-08-04T10:23:23.925Z,4.90
2022-08-04T10:26:45.600Z,3.10
2022-08-04T10:29:48.999Z,6.60
2022-08-04T10:33:21.350Z,2.70
2022-08-04T10:36:31.095Z,3.30
2022-08-04T10:40:07.779Z,2.90
2022-08-04T10:43:23.083Z,4.30
2022-08-04T10:46:31.507Z,4.00
2022-08-04T10:49:40.787Z,2.60
2022-08-04T10:53:15.453Z,5.60
2022-08-04T10:56:30.183Z,3.10
2022-08-04T10:59:47.797Z,3.70
2022-08-04T11:03:15.935Z,4.30
2022-08-04T11:06:19.613Z,2.80
2022-08-04T11:09:25.872Z,4.40
2022-08-04T11:12:29.964Z,2.60
2022-08-04T11:15:49.231Z,3.50
2022-08-04T11:19:23.368Z,4.00
2022-08-04T11:23:01.173Z,3.40
2022-08-04T11:26:19.650Z,3.40
2022-08-04T11:29:42.348Z,2.40
2022-08-04T11:33:09.104Z,3.70
2022-08-04T11:36:32.324Z,5.60
2022-08-04T11:39:45.102Z,6.00
2022-08-04T11:43:02.493Z,4.30
2022-08-04T11:46:13.864Z,3.60
2022-08-04T11:49:57.217Z,2.50
2022-08-04T11:52:58.337Z,4.70
2022-08-04T11:56:09.389Z,5.40
2022-08-04T11:59:13.320Z,2.60
2022-08-04T12:02:28.622Z,6.40
2022-08-04T12:05:41.691Z,2.70
2022-08-04T12:08:53.794Z,5.90
2022-08-04T12:12:15.674Z,3.60
2022-08-04T12:16:01.390Z,3.50
2022-08-04T12:19:21.099Z,5.00
2022-08-04T12:22:30.601Z,4.40
2022-08-04T12:25:44.724Z,6.20
2022-08-04T12:29:09.697Z,4.40
2022-08-04T12:32:22.371Z,4.80
2022-08-04T12:35:35.418Z,5.20
2022-08-04T12:38:47.595Z,3.60
2022-08-04T12:42:08.759Z,4.30
2022-08-04T12:45:14.235Z,3.50
2022-08-04T12:48:21.624Z,8.90
2022-08-04T12:52:06.617Z,6.20
2022-08-04T12:54:54.377Z,3.70
2022-08-04T12:58:03.326Z,10.20
2022-08-04T13:02:10.205Z,5.80
2022-08-04T13:04:42.465Z,3.40
2022-08-04T13:07:51.012Z,7.30
2022-08-04T13:11:00.285Z,4.40
2022-08-04T13:14:25.651Z,4.40
2022-08-04T13:18:02.055Z,12.40
2022-08-04T13:21:50.099Z,5.70
2022-08-04T13:24:56.901Z,5.50
2022-08-04T13:28:22.704Z,4.10
2022-08-04T13:31:35.808Z,5.70
2022-08-04T13:34:49.068Z,6.70
2022-08-04T13:37:57.492Z,5.90
2022-08-04T13:41:04.734Z,4.70
2022-08-04T13:44:19.412Z,5.60
2022-08-04T13:47:28.214Z,4.90
2022-08-04T13:50:33.521Z,6.70
2022-08-04T13:53:38.833Z,6.30
2022-08-04T13:56:49.493Z,7.00
2022-08-04T13:59:57.815Z,5.40
2022-08-04T14:03:23.645Z,9.30
2022-08-04T14:06:34.916Z,3.80
2022-08-04T14:09:39.660Z,4.90
2022-08-04T14:12:50.421Z,6.00
2022-08-04T14:16:02.829Z,5.00
2022-08-04T14:19:07.551Z,4.20
2022-08-04T14:22:27.629Z,3.80
2022-08-04T14:25:35.708Z,4.90
2022-08-04T14:29:09.615Z,5.30
2022-08-04T14:32:12.937Z,5.20
2022-08-04T14:35:17.838Z,5.50
2022-08-04T14:38:20.919Z,5.80
2022-08-04T14:41:29.505Z,5.70
2022-08-04T14:44:32.689Z,4.70
2022-08-04T14:47:52.031Z,7.50
2022-08-04T14:50:56.272Z,9.30
2022-08-04T14:53:59.224Z,4.30
2022-08-04T14:57:06.888Z,7.30
2022-08-04T15:00:13.569Z,11.00
2022-08-04T15:03:21.925Z,4.70
2022-08-04T15:06:27.375Z,6.50
2022-08-04T15:09:31.552Z,9.50
2022-08-04T15:12:34.523Z,4.30
2022-08-04T15:15:39.534Z,5.20
2022-08-04T15:18:42.589Z,5.50
2022-08-04T15:21:45.707Z,3.90
2022-08-04T15:24:52.157Z,6.40
2022-08-04T15:28:00.639Z,8.60
2022-08-04T15:31:10.652Z,5.80
2022-08-04T15:34:46.292Z,6.60
2022-08-04T15:37:58.340Z,4.20
2022-08-04T15:41:10.516Z,3.40
2022-08-04T15:44:43.791Z,4.90
2022-08-04T15:48:13.038Z,5.40
2022-08-04T15:51:32.091Z,4.50
2022-08-04T15:54:37.961Z,5.20
2022-08-04T15:57:59.933Z,3.40
2022-08-04T16:01:02.841Z,6.30
2022-08-04T16:04:22.757Z,5.30
2022-08-04T16:07:57.217Z,6.00
2022-08-04T16:11:00.141Z,4.70
2022-08-04T16:14:03.019Z,6.20
2022-08-04T16:17:16.604Z,5.40
2022-08-04T16:20:20.515Z,5.60
2022-08-04T16:23:54.256Z,4.90
2022-08-04T16:27:00.929Z,6.10
2022-08-04T16:30:13.939Z,4.70
2022-08-04T16:33:17.406Z,6.30
2022-08-04T16:36:58.410Z,5.20
2022-08-04T16:40:38.547Z,4.50
2022-08-04T16:43:41.944Z,4.70
2022-08-04T16:47:21.535Z,4.50
2022-08-04T16:50:08.052Z,3.90
2022-08-04T16:53:14.691Z,4.90
2022-08-04T16:56:36.212Z,7.60
2022-08-04T16:59:51.897Z,4.70
2022-08-04T17:02:55.246Z,5.40
2022-08-04T17:06:17.680Z,6.00
2022-08-04T17:09:23.314Z,4.40
2022-08-04T17:12:29.136Z,4.20
2022-08-04T17:15:32.092Z,3.60
2022-08-04T17:18:37.895Z,6.60
2022-08-04T17:21:40.781Z,4.50
2022-08-04T17:24:43.654Z,3.60
2022-08-04T17:28:18.417Z,3.70
2022-08-04T17:31:10.949Z,8.40
2022-08-04T17:34:19.475Z,4.30
2022-08-04T17:37:39.704Z,3.80
2022-08-04T17:40:57.262Z,5.20
2022-08-04T17:44:06.862Z,3.10
2022-08-04T17:47:19.568Z,4.70
2022-08-04T17:50:28.618Z,2.50
2022-08-04T17:53:52.867Z,3.00
2022-08-04T17:56:59.642Z,5.00
2022-08-04T18:00:02.808Z,7.50
2022-08-04T18:03:29.144Z,4.40
2022-08-04T18:06:33.124Z,5.20
2022-08-04T18:10:02.080Z,3.30
2022-08-04T18:13:14.312Z,4.20
2022-08-04T18:16:22.590Z,5.70
2022-08-04T18:19:26.144Z,5.20
2022-08-04T18:22:34.470Z,2.60
2022-08-04T18:25:51.537Z,5.20
2022-08-04T18:28:55.177Z,4.50
2022-08-04T18:31:58.306Z,4.40
2022-08-04T18:35:07.055Z,4.00
2022-08-04T18:38:22.142Z,6.20
2022-08-04T18:42:02.439Z,4.30
2022-08-04T18:44:55.194Z,5.10
2022-08-04T18:48:01.293Z,3.30
2022-08-04T18:51:23.223Z,3.40
2022-08-04T18:54:27.681Z,4.50
2022-08-04T18:57:59.337Z,5.40
2022-08-04T19:00:55.856Z,3.80
2022-08-04T19:03:59.019Z,8.70
2022-08-04T19:07:26.581Z,4.10
2022-08-04T19:10:26.754Z,5.40
2022-08-04T19:13:34.792Z,4.40
2022-08-04T19:16:38.288Z,6.50
2022-08-04T19:19:47.549Z,7.80
2022-08-04T19:24:29.359Z,3.70
2022-08-04T19:26:20.717Z,4.30
2022-08-04T19:29:37.783Z,5.80
2022-08-04T19:32:41.218Z,8.30
2022-08-04T19:35:50.730Z,10.00
2022-08-04T19:38:54.877Z,6.20
2022-08-04T19:42:06.142Z,5.40
2022-08-04T19:45:15.436Z,6.30
2022-08-04T19:48:20.115Z,6.60
2022-08-04T19:51:23.301Z,9.80
2022-08-04T19:54:30.828Z,7.90
2022-08-04T19:57:36.165Z,6.90
2022-08-04T20:00:44.686Z,5.20
2022-08-04T20:04:08.268Z,7.30
2022-08-04T20:07:14.649Z,4.90
2022-08-04T20:10:23.899Z,7.80
2022-08-04T20:13:30.974Z,6.50
2022-08-04T20:16:40.967Z,11.90
2022-08-04T20:19:51.233Z,5.60
2022-08-04T20:22:54.672Z,7.00
2022-08-04T20:25:57.571Z,11.50
2022-08-04T20:29:00.512Z,6.70
2022-08-04T20:32:10.543Z,6.20
2022-08-04T20:35:26.769Z,7.20
2022-08-04T20:38:33.080Z,8.60
2022-08-04T20:41:38.746Z,7.60
2022-08-04T20:44:49.752Z,7.10
2022-08-04T20:47:54.179Z,8.10
2022-08-04T20:50:57.549Z,4.60
2022-08-04T20:54:02.478Z,5.20
2022-08-04T20:57:08.975Z,6.80
2022-08-04T21:00:13.392Z,5.40
2022-08-04T21:03:16.750Z,6.40
2022-08-04T21:06:20.920Z,6.30
2022-08-04T21:09:38.623Z,4.90
2022-08-04T21:12:49.687Z,4.30
2022-08-04T21:15:59.234Z,4.80
2022-08-04T21:19:05.585Z,5.50
2022-08-04T21:25:42.971Z,5.90
2022-08-04T21:28:47.218Z,7.60
2022-08-04T21:31:53.430Z,5.30
2022-08-04T21:35:06.056Z,8.10
2022-08-04T21:38:17.179Z,6.30
2022-08-04T21:41:24.858Z,3.80
2022-08-04T21:44:30.400Z,6.50
2022-08-04T21:47:45.830Z,4.60
2022-08-04T21:50:50.483Z,4.00
2022-08-04T21:53:53.885Z,6.30
2022-08-04T21:56:57.762Z,3.50
2022-08-04T22:00:00.769Z,5.00
2022-08-04T22:03:18.655Z,5.90
2022-08-04T22:06:33.826Z,6.40
2022-08-04T22:09:38.548Z,6.70
2022-08-04T22:12:44.588Z,4.30
2022-08-04T22:16:03.608Z,5.20
2022-08-04T22:19:10.872Z,5.20
2022-08-04T22:22:25.289Z,5.20
2022-08-04T22:25:30.852Z,6.70
2022-08-04T22:28:34.394Z,3.30
2022-08-04T22:31:56.140Z,4.70
2022-08-04T22:35:03.024Z,4.00
2022-08-04T22:38:28.879Z,3.60
2022-08-04T22:41:48.854Z,4.70
2022-08-04T22:45:03.281Z,4.80
2022-08-04T22:48:10.791Z,5.40
2022-08-04T22:51:13.923Z,6.60
2022-08-04T22:54:17.362Z,6.00
2022-08-04T22:57:20.255Z,5.50
2022-08-04T23:00:43.162Z,6.30
2022-08-04T23:03:55.282Z,6.40
2022-08-04T23:07:00.070Z,4.90
2022-08-04T23:10:04.725Z,9.20
2022-08-04T23:13:10.909Z,5.30
2022-08-04T23:16:14.595Z,4.30
2022-08-04T23:19:17.609Z,7.90
2022-08-04T23:22:37.419Z,4.80
2022-08-04T23:26:08.475Z,5.40
2022-08-04T23:29:08.724Z,5.50
2022-08-04T23:32:11.579Z,7.00
2022-08-04T23:35:16.197Z,8.80
2022-08-04T23:38:30.563Z,4.70
2022-08-04T23:41:55.182Z,7.20
2022-08-04T23:44:58.331Z,4.90
2022-08-04T23:48:18.244Z,6.30
2022-08-04T23:51:22.566Z,5.70
2022-08-04T23:54:26.133Z,5.70
2022-08-04T23:57:31.151Z,5.50
